sensor_id;sensor_type;location;lat;lon;timestamp;P1;durP1;ratioP1;P2;durP2;ratioP2
37781;SDS011;23621;50.878;4.584;2023-04-30T00:00:37;18.77;;;15.60;;
37781;SDS011;23621;50.878;4.584;2023-04-30T00:03:24;17.80;;;15.27;;
37781;SDS011;23621;50.878;4.584;2023-04-30T00:06:11;18.40;;;15.55;;
37781;SDS011;23621;50.878;4.584;2023-04-30T00:08:59;17.83;;;15.40;;
37781;SDS011;23621;50.878;4.584;2023-04-30T00:11:46;17.67;;;15.45;;
37781;SDS011;23621;50.878;4.584;2023-04-30T00:14:33;16.73;;;14.93;;
37781;SDS011;23621;50.878;4.584;2023-04-30T00:17:21;17.60;;;15.32;;
37781;SDS011;23621;50.878;4.584;2023-04-30T00:20:08;18.23;;;14.90;;
37781;SDS011;23621;50.878;4.584;2023-04-30T00:22:56;16.73;;;14.77;;
37781;SDS011;23621;50.878;4.584;2023-04-30T00:25:43;17.27;;;14.75;;
37781;SDS011;23621;50.878;4.584;2023-04-30T00:28:30;16.75;;;14.50;;
37781;SDS011;23621;50.878;4.584;2023-04-30T00:31:17;16.77;;;14.10;;
37781;SDS011;23621;50.878;4.584;2023-04-30T00:34:05;17.20;;;13.43;;
37781;SDS011;23621;50.878;4.584;2023-04-30T00:36:52;14.98;;;13.25;;
37781;SDS011;23621;50.878;4.584;2023-04-30T00:39:39;16.60;;;13.30;;
37781;SDS011;23621;50.878;4.584;2023-04-30T00:42:28;15.63;;;13.93;;
37781;SDS011;23621;50.878;4.584;2023-04-30T00:45:15;15.07;;;13.07;;
37781;SDS011;23621;50.878;4.584;2023-04-30T00:48:07;15.95;;;13.40;;
37781;SDS011;23621;50.878;4.584;2023-04-30T00:50:54;13.10;;;11.52;;
37781;SDS011;23621;50.878;4.584;2023-04-30T00:53:42;13.90;;;12.48;;
37781;SDS011;23621;50.878;4.584;2023-04-30T00:56:29;13.50;;;11.88;;
37781;SDS011;23621;50.878;4.584;2023-04-30T00:59:17;12.93;;;11.52;;
37781;SDS011;23621;50.878;4.584;2023-04-30T01:02:04;12.30;;;11.00;;
37781;SDS011;23621;50.878;4.584;2023-04-30T01:04:52;13.63;;;11.30;;
37781;SDS011;23621;50.878;4.584;2023-04-30T01:07:40;13.15;;;10.63;;
37781;SDS011;23621;50.878;4.584;2023-04-30T01:10:31;12.15;;;10.80;;
37781;SDS011;23621;50.878;4.584;2023-04-30T01:13:31;11.40;;;10.20;;
37781;SDS011;23621;50.878;4.584;2023-04-30T01:16:26;12.93;;;9.82;;
37781;SDS011;23621;50.878;4.584;2023-04-30T01:22:34;13.30;;;10.50;;
37781;SDS011;23621;50.878;4.584;2023-04-30T01:28:29;10.90;;;9.13;;
37781;SDS011;23621;50.878;4.584;2023-04-30T01:31:19;10.57;;;9.48;;
37781;SDS011;23621;50.878;4.584;2023-04-30T01:34:06;11.77;;;9.25;;
37781;SDS011;23621;50.878;4.584;2023-04-30T01:43:28;15.32;;;9.80;;
37781;SDS011;23621;50.878;4.584;2023-04-30T01:46:25;10.15;;;8.77;;
37781;SDS011;23621;50.878;4.584;2023-04-30T01:55:36;11.07;;;9.90;;
37781;SDS011;23621;50.878;4.584;2023-04-30T01:58:29;11.77;;;9.88;;
37781;SDS011;23621;50.878;4.584;2023-04-30T02:04:15;9.68;;;8.65;;
37781;SDS011;23621;50.878;4.584;2023-04-30T02:07:03;9.80;;;8.80;;
37781;SDS011;23621;50.878;4.584;2023-04-30T02:09:50;9.40;;;8.35;;
37781;SDS011;23621;50.878;4.584;2023-04-30T02:12:37;10.18;;;8.68;;
37781;SDS011;23621;50.878;4.584;2023-04-30T02:15:25;12.43;;;8.43;;
37781;SDS011;23621;50.878;4.584;2023-04-30T02:18:13;12.45;;;9.25;;
37781;SDS011;23621;50.878;4.584;2023-04-30T02:21:00;9.70;;;8.57;;
37781;SDS011;23621;50.878;4.584;2023-04-30T02:23:47;12.52;;;9.10;;
37781;SDS011;23621;50.878;4.584;2023-04-30T02:26:34;9.57;;;8.45;;
37781;SDS011;23621;50.878;4.584;2023-04-30T02:29:22;11.43;;;8.65;;
37781;SDS011;23621;50.878;4.584;2023-04-30T02:32:09;10.35;;;8.57;;
37781;SDS011;23621;50.878;4.584;2023-04-30T02:34:56;8.50;;;7.63;;
37781;SDS011;23621;50.878;4.584;2023-04-30T02:37:43;8.95;;;8.05;;
37781;SDS011;23621;50.878;4.584;2023-04-30T02:40:30;10.63;;;8.40;;
37781;SDS011;23621;50.878;4.584;2023-04-30T02:43:17;11.80;;;8.70;;
37781;SDS011;23621;50.878;4.584;2023-04-30T02:46:05;11.73;;;8.75;;
37781;SDS011;23621;50.878;4.584;2023-04-30T02:48:52;8.57;;;7.68;;
37781;SDS011;23621;50.878;4.584;2023-04-30T02:51:40;9.50;;;8.23;;
37781;SDS011;23621;50.878;4.584;2023-04-30T02:54:27;10.38;;;8.30;;
37781;SDS011;23621;50.878;4.584;2023-04-30T02:57:14;9.63;;;8.00;;
37781;SDS011;23621;50.878;4.584;2023-04-30T03:00:02;9.80;;;8.40;;
37781;SDS011;23621;50.878;4.584;2023-04-30T03:02:50;10.18;;;8.20;;
37781;SDS011;23621;50.878;4.584;2023-04-30T03:05:37;9.48;;;7.97;;
37781;SDS011;23621;50.878;4.584;2023-04-30T03:08:24;9.38;;;7.57;;
37781;SDS011;23621;50.878;4.584;2023-04-30T03:11:12;8.90;;;7.18;;
37781;SDS011;23621;50.878;4.584;2023-04-30T03:13:59;10.45;;;6.88;;
37781;SDS011;23621;50.878;4.584;2023-04-30T03:16:46;7.85;;;6.88;;
37781;SDS011;23621;50.878;4.584;2023-04-30T03:19:34;10.02;;;7.38;;
37781;SDS011;23621;50.878;4.584;2023-04-30T03:22:21;8.30;;;7.47;;
37781;SDS011;23621;50.878;4.584;2023-04-30T03:25:09;9.18;;;7.53;;
37781;SDS011;23621;50.878;4.584;2023-04-30T03:27:57;9.27;;;7.20;;
37781;SDS011;23621;50.878;4.584;2023-04-30T03:30:44;8.43;;;7.38;;
37781;SDS011;23621;50.878;4.584;2023-04-30T03:33:32;8.80;;;7.90;;
37781;SDS011;23621;50.878;4.584;2023-04-30T03:36:19;9.32;;;8.35;;
37781;SDS011;23621;50.878;4.584;2023-04-30T03:39:07;10.73;;;7.72;;
37781;SDS011;23621;50.878;4.584;2023-04-30T03:41:55;9.07;;;7.78;;
37781;SDS011;23621;50.878;4.584;2023-04-30T03:44:42;10.55;;;7.30;;
37781;SDS011;23621;50.878;4.584;2023-04-30T03:47:29;9.30;;;8.10;;
37781;SDS011;23621;50.878;4.584;2023-04-30T03:50:17;8.90;;;7.50;;
37781;SDS011;23621;50.878;4.584;2023-04-30T03:53:04;8.80;;;7.15;;
37781;SDS011;23621;50.878;4.584;2023-04-30T03:55:52;8.35;;;7.45;;
37781;SDS011;23621;50.878;4.584;2023-04-30T03:58:40;8.98;;;8.07;;
37781;SDS011;23621;50.878;4.584;2023-04-30T04:01:28;8.30;;;7.50;;
37781;SDS011;23621;50.878;4.584;2023-04-30T04:04:16;9.90;;;8.20;;
37781;SDS011;23621;50.878;4.584;2023-04-30T04:07:04;8.90;;;7.53;;
37781;SDS011;23621;50.878;4.584;2023-04-30T04:09:53;8.57;;;7.78;;
37781;SDS011;23621;50.878;4.584;2023-04-30T04:12:41;8.05;;;7.25;;
37781;SDS011;23621;50.878;4.584;2023-04-30T04:15:29;8.52;;;7.18;;
37781;SDS011;23621;50.878;4.584;2023-04-30T04:18:16;8.35;;;6.97;;
37781;SDS011;23621;50.878;4.584;2023-04-30T04:21:03;8.65;;;7.60;;
37781;SDS011;23621;50.878;4.584;2023-04-30T04:23:51;9.40;;;7.15;;
37781;SDS011;23621;50.878;4.584;2023-04-30T04:26:38;8.90;;;7.97;;
37781;SDS011;23621;50.878;4.584;2023-04-30T04:29:25;10.85;;;7.70;;
37781;SDS011;23621;50.878;4.584;2023-04-30T04:32:12;8.07;;;6.82;;
37781;SDS011;23621;50.878;4.584;2023-04-30T04:35:00;11.40;;;7.80;;
37781;SDS011;23621;50.878;4.584;2023-04-30T04:37:47;9.20;;;7.40;;
37781;SDS011;23621;50.878;4.584;2023-04-30T04:40:34;9.95;;;7.25;;
37781;SDS011;23621;50.878;4.584;2023-04-30T04:43:22;8.23;;;6.85;;
37781;SDS011;23621;50.878;4.584;2023-04-30T04:46:10;11.05;;;6.57;;
37781;SDS011;23621;50.878;4.584;2023-04-30T04:49:00;8.05;;;7.22;;
37781;SDS011;23621;50.878;4.584;2023-04-30T04:51:47;9.13;;;7.20;;
37781;SDS011;23621;50.878;4.584;2023-04-30T04:54:34;8.30;;;7.45;;
37781;SDS011;23621;50.878;4.584;2023-04-30T04:57:22;9.00;;;7.47;;
37781;SDS011;23621;50.878;4.584;2023-04-30T05:00:09;9.05;;;7.40;;
37781;SDS011;23621;50.878;4.584;2023-04-30T05:02:58;11.02;;;8.20;;
37781;SDS011;23621;50.878;4.584;2023-04-30T05:05:45;10.65;;;8.45;;
37781;SDS011;23621;50.878;4.584;2023-04-30T05:08:32;9.05;;;8.15;;
37781;SDS011;23621;50.878;4.584;2023-04-30T05:11:20;10.15;;;7.82;;
37781;SDS011;23621;50.878;4.584;2023-04-30T05:14:08;9.70;;;7.75;;
37781;SDS011;23621;50.878;4.584;2023-04-30T05:16:55;9.48;;;7.63;;
37781;SDS011;23621;50.878;4.584;2023-04-30T05:19:42;8.90;;;7.90;;
37781;SDS011;23621;50.878;4.584;2023-04-30T05:22:29;10.75;;;7.40;;
37781;SDS011;23621;50.878;4.584;2023-04-30T05:25:17;11.65;;;7.80;;
37781;SDS011;23621;50.878;4.584;2023-04-30T05:28:04;9.20;;;8.18;;
37781;SDS011;23621;50.878;4.584;2023-04-30T05:30:52;12.25;;;8.48;;
37781;SDS011;23621;50.878;4.584;2023-04-30T05:33:39;11.63;;;8.80;;
37781;SDS011;23621;50.878;4.584;2023-04-30T05:36:26;8.73;;;7.82;;
37781;SDS011;23621;50.878;4.584;2023-04-30T05:39:14;10.15;;;8.25;;
37781;SDS011;23621;50.878;4.584;2023-04-30T05:42:01;11.35;;;8.18;;
37781;SDS011;23621;50.878;4.584;2023-04-30T05:44:49;12.43;;;8.90;;
37781;SDS011;23621;50.878;4.584;2023-04-30T05:47:36;11.27;;;8.85;;
37781;SDS011;23621;50.878;4.584;2023-04-30T05:50:24;10.98;;;9.35;;
37781;SDS011;23621;50.878;4.584;2023-04-30T05:53:12;11.82;;;10.07;;
37781;SDS011;23621;50.878;4.584;2023-04-30T05:55:59;10.82;;;9.57;;
37781;SDS011;23621;50.878;4.584;2023-04-30T05:58:46;12.63;;;9.98;;
37781;SDS011;23621;50.878;4.584;2023-04-30T06:01:33;13.20;;;10.18;;
37781;SDS011;23621;50.878;4.584;2023-04-30T06:04:21;12.70;;;10.35;;
37781;SDS011;23621;50.878;4.584;2023-04-30T06:07:08;11.88;;;10.13;;
37781;SDS011;23621;50.878;4.584;2023-04-30T06:09:55;12.15;;;9.93;;
37781;SDS011;23621;50.878;4.584;2023-04-30T06:12:43;13.77;;;10.32;;
37781;SDS011;23621;50.878;4.584;2023-04-30T06:15:30;15.13;;;11.77;;
37781;SDS011;23621;50.878;4.584;2023-04-30T06:18:17;15.75;;;12.13;;
37781;SDS011;23621;50.878;4.584;2023-04-30T06:21:05;14.77;;;13.02;;
37781;SDS011;23621;50.878;4.584;2023-04-30T06:23:53;18.02;;;14.88;;
37781;SDS011;23621;50.878;4.584;2023-04-30T06:26:40;18.00;;;14.18;;
37781;SDS011;23621;50.878;4.584;2023-04-30T06:29:27;19.70;;;14.80;;
37781;SDS011;23621;50.878;4.584;2023-04-30T06:32:14;17.73;;;15.75;;
37781;SDS011;23621;50.878;4.584;2023-04-30T06:35:02;18.23;;;15.40;;
37781;SDS011;23621;50.878;4.584;2023-04-30T06:37:50;21.55;;;16.20;;
37781;SDS011;23621;50.878;4.584;2023-04-30T06:40:37;21.55;;;16.45;;
37781;SDS011;23621;50.878;4.584;2023-04-30T06:43:25;19.92;;;16.42;;
37781;SDS011;23621;50.878;4.584;2023-04-30T06:46:12;20.70;;;16.65;;
37781;SDS011;23621;50.878;4.584;2023-04-30T06:49:00;19.60;;;16.65;;
37781;SDS011;23621;50.878;4.584;2023-04-30T06:51:48;21.35;;;17.02;;
37781;SDS011;23621;50.878;4.584;2023-04-30T06:54:35;19.42;;;15.52;;
37781;SDS011;23621;50.878;4.584;2023-04-30T06:57:22;21.48;;;17.20;;
37781;SDS011;23621;50.878;4.584;2023-04-30T07:00:11;20.65;;;16.67;;
37781;SDS011;23621;50.878;4.584;2023-04-30T07:03:00;22.65;;;15.57;;
37781;SDS011;23621;50.878;4.584;2023-04-30T07:05:50;19.98;;;15.80;;
37781;SDS011;23621;50.878;4.584;2023-04-30T07:08:39;18.98;;;16.13;;
37781;SDS011;23621;50.878;4.584;2023-04-30T07:11:26;20.65;;;16.38;;
37781;SDS011;23621;50.878;4.584;2023-04-30T07:14:14;18.05;;;15.30;;
37781;SDS011;23621;50.878;4.584;2023-04-30T07:17:01;20.00;;;16.67;;
37781;SDS011;23621;50.878;4.584;2023-04-30T07:19:48;19.83;;;16.10;;
37781;SDS011;23621;50.878;4.584;2023-04-30T07:22:36;18.88;;;15.80;;
37781;SDS011;23621;50.878;4.584;2023-04-30T07:25:23;19.33;;;15.65;;
37781;SDS011;23621;50.878;4.584;2023-04-30T07:28:10;18.98;;;15.90;;
37781;SDS011;23621;50.878;4.584;2023-04-30T07:30:57;20.13;;;16.23;;
37781;SDS011;23621;50.878;4.584;2023-04-30T07:33:46;19.95;;;16.45;;
37781;SDS011;23621;50.878;4.584;2023-04-30T07:36:34;19.35;;;16.65;;
37781;SDS011;23621;50.878;4.584;2023-04-30T07:39:21;18.88;;;15.32;;
37781;SDS011;23621;50.878;4.584;2023-04-30T07:42:08;20.08;;;14.77;;
37781;SDS011;23621;50.878;4.584;2023-04-30T07:44:56;21.77;;;17.05;;
37781;SDS011;23621;50.878;4.584;2023-04-30T07:47:43;19.30;;;15.73;;
37781;SDS011;23621;50.878;4.584;2023-04-30T07:50:30;20.08;;;16.23;;
37781;SDS011;23621;50.878;4.584;2023-04-30T07:53:19;18.98;;;16.17;;
37781;SDS011;23621;50.878;4.584;2023-04-30T07:56:07;19.13;;;16.15;;
37781;SDS011;23621;50.878;4.584;2023-04-30T07:58:54;19.30;;;15.75;;
37781;SDS011;23621;50.878;4.584;2023-04-30T08:01:41;21.25;;;17.10;;
37781;SDS011;23621;50.878;4.584;2023-04-30T08:04:28;21.13;;;16.92;;
37781;SDS011;23621;50.878;4.584;2023-04-30T08:07:16;21.08;;;17.20;;
37781;SDS011;23621;50.878;4.584;2023-04-30T08:10:03;20.63;;;16.63;;
37781;SDS011;23621;50.878;4.584;2023-04-30T08:12:51;20.60;;;16.98;;
37781;SDS011;23621;50.878;4.584;2023-04-30T08:15:38;20.33;;;17.17;;
37781;SDS011;23621;50.878;4.584;2023-04-30T08:18:26;21.48;;;17.45;;
37781;SDS011;23621;50.878;4.584;2023-04-30T08:21:13;22.63;;;18.27;;
37781;SDS011;23621;50.878;4.584;2023-04-30T08:24:01;20.88;;;17.50;;
37781;SDS011;23621;50.878;4.584;2023-04-30T08:26:49;20.40;;;16.98;;
37781;SDS011;23621;50.878;4.584;2023-04-30T08:29:37;21.42;;;17.90;;
37781;SDS011;23621;50.878;4.584;2023-04-30T08:32:25;20.08;;;17.00;;
37781;SDS011;23621;50.878;4.584;2023-04-30T08:35:13;21.08;;;16.85;;
37781;SDS011;23621;50.878;4.584;2023-04-30T08:38:02;21.38;;;15.85;;
37781;SDS011;23621;50.878;4.584;2023-04-30T08:41:11;20.40;;;16.42;;
37781;SDS011;23621;50.878;4.584;2023-04-30T08:44:00;19.55;;;16.05;;
37781;SDS011;23621;50.878;4.584;2023-04-30T08:46:55;20.50;;;15.75;;
37781;SDS011;23621;50.878;4.584;2023-04-30T08:49:44;18.00;;;15.13;;
37781;SDS011;23621;50.878;4.584;2023-04-30T08:52:32;19.08;;;15.35;;
37781;SDS011;23621;50.878;4.584;2023-04-30T08:55:25;17.17;;;15.38;;
37781;SDS011;23621;50.878;4.584;2023-04-30T08:58:13;17.30;;;15.25;;
37781;SDS011;23621;50.878;4.584;2023-04-30T09:01:00;15.45;;;13.85;;
37781;SDS011;23621;50.878;4.584;2023-04-30T09:03:48;16.00;;;12.63;;
37781;SDS011;23621;50.878;4.584;2023-04-30T09:06:36;15.93;;;13.55;;
37781;SDS011;23621;50.878;4.584;2023-04-30T09:09:27;13.93;;;12.13;;
37781;SDS011;23621;50.878;4.584;2023-04-30T09:12:16;13.38;;;11.27;;
37781;SDS011;23621;50.878;4.584;2023-04-30T09:15:05;13.82;;;10.13;;
37781;SDS011;23621;50.878;4.584;2023-04-30T09:21:04;10.55;;;9.25;;
37781;SDS011;23621;50.878;4.584;2023-04-30T09:23:54;11.60;;;10.35;;
37781;SDS011;23621;50.878;4.584;2023-04-30T09:26:43;10.82;;;9.27;;
37781;SDS011;23621;50.878;4.584;2023-04-30T09:29:36;8.98;;;8.07;;
37781;SDS011;23621;50.878;4.584;2023-04-30T09:32:23;10.73;;;8.45;;
37781;SDS011;23621;50.878;4.584;2023-04-30T09:35:30;11.10;;;8.63;;
37781;SDS011;23621;50.878;4.584;2023-04-30T09:38:31;9.88;;;7.78;;
37781;SDS011;23621;50.878;4.584;2023-04-30T09:41:22;10.52;;;8.55;;
37781;SDS011;23621;50.878;4.584;2023-04-30T09:44:30;9.93;;;8.77;;
37781;SDS011;23621;50.878;4.584;2023-04-30T09:47:18;9.68;;;8.68;;
37781;SDS011;23621;50.878;4.584;2023-04-30T09:50:06;9.05;;;7.90;;
37781;SDS011;23621;50.878;4.584;2023-04-30T09:52:54;9.75;;;8.07;;
37781;SDS011;23621;50.878;4.584;2023-04-30T09:55:54;8.73;;;7.90;;
37781;SDS011;23621;50.878;4.584;2023-04-30T09:58:51;8.32;;;7.47;;
37781;SDS011;23621;50.878;4.584;2023-04-30T10:01:39;8.45;;;7.55;;
37781;SDS011;23621;50.878;4.584;2023-04-30T10:04:28;8.73;;;7.82;;
37781;SDS011;23621;50.878;4.584;2023-04-30T10:07:21;10.50;;;8.15;;
37781;SDS011;23621;50.878;4.584;2023-04-30T10:10:12;8.50;;;7.70;;
37781;SDS011;23621;50.878;4.584;2023-04-30T10:13:02;8.05;;;7.18;;
37781;SDS011;23621;50.878;4.584;2023-04-30T10:15:53;8.07;;;7.28;;
37781;SDS011;23621;50.878;4.584;2023-04-30T10:18:45;8.30;;;6.80;;
37781;SDS011;23621;50.878;4.584;2023-04-30T10:21:39;6.50;;;5.90;;
37781;SDS011;23621;50.878;4.584;2023-04-30T10:24:28;9.75;;;6.60;;
37781;SDS011;23621;50.878;4.584;2023-04-30T10:27:16;7.53;;;6.35;;
37781;SDS011;23621;50.878;4.584;2023-04-30T10:30:05;6.35;;;5.75;;
37781;SDS011;23621;50.878;4.584;2023-04-30T10:35:56;8.20;;;6.32;;
37781;SDS011;23621;50.878;4.584;2023-04-30T10:38:46;7.85;;;7.05;;
37781;SDS011;23621;50.878;4.584;2023-04-30T10:41:34;6.43;;;5.82;;
37781;SDS011;23621;50.878;4.584;2023-04-30T10:44:21;6.82;;;6.07;;
37781;SDS011;23621;50.878;4.584;2023-04-30T10:47:11;9.43;;;5.18;;
37781;SDS011;23621;50.878;4.584;2023-04-30T10:50:02;6.78;;;6.07;;
37781;SDS011;23621;50.878;4.584;2023-04-30T10:53:00;6.55;;;5.45;;
37781;SDS011;23621;50.878;4.584;2023-04-30T10:55:52;5.70;;;5.10;;
37781;SDS011;23621;50.878;4.584;2023-04-30T10:58:40;5.88;;;5.30;;
37781;SDS011;23621;50.878;4.584;2023-04-30T11:01:29;6.78;;;5.65;;
37781;SDS011;23621;50.878;4.584;2023-04-30T11:04:16;6.78;;;5.85;;
37781;SDS011;23621;50.878;4.584;2023-04-30T11:07:07;7.05;;;5.60;;
37781;SDS011;23621;50.878;4.584;2023-04-30T11:09:56;7.10;;;5.60;;
37781;SDS011;23621;50.878;4.584;2023-04-30T11:12:47;6.28;;;5.43;;
37781;SDS011;23621;50.878;4.584;2023-04-30T11:15:41;5.95;;;5.35;;
37781;SDS011;23621;50.878;4.584;2023-04-30T11:18:31;4.75;;;4.35;;
37781;SDS011;23621;50.878;4.584;2023-04-30T11:21:19;4.70;;;4.05;;
37781;SDS011;23621;50.878;4.584;2023-04-30T11:24:06;4.57;;;4.18;;
37781;SDS011;23621;50.878;4.584;2023-04-30T11:27:03;6.68;;;5.65;;
37781;SDS011;23621;50.878;4.584;2023-04-30T11:29:52;5.22;;;4.57;;
37781;SDS011;23621;50.878;4.584;2023-04-30T11:32:41;6.18;;;5.57;;
37781;SDS011;23621;50.878;4.584;2023-04-30T11:35:31;5.70;;;5.00;;
37781;SDS011;23621;50.878;4.584;2023-04-30T11:38:20;5.75;;;5.15;;
37781;SDS011;23621;50.878;4.584;2023-04-30T11:41:10;5.82;;;5.07;;
37781;SDS011;23621;50.878;4.584;2023-04-30T11:43:58;5.90;;;5.30;;
37781;SDS011;23621;50.878;4.584;2023-04-30T11:46:45;6.00;;;5.35;;
37781;SDS011;23621;50.878;4.584;2023-04-30T11:49:32;6.13;;;5.13;;
37781;SDS011;23621;50.878;4.584;2023-04-30T11:52:20;5.50;;;5.00;;
37781;SDS011;23621;50.878;4.584;2023-04-30T11:55:17;4.80;;;4.30;;
37781;SDS011;23621;50.878;4.584;2023-04-30T11:58:07;5.53;;;4.93;;
37781;SDS011;23621;50.878;4.584;2023-04-30T12:00:58;6.20;;;5.05;;
37781;SDS011;23621;50.878;4.584;2023-04-30T12:03:46;6.15;;;5.55;;
37781;SDS011;23621;50.878;4.584;2023-04-30T12:06:35;4.97;;;4.40;;
37781;SDS011;23621;50.878;4.584;2023-04-30T12:09:23;6.18;;;5.57;;
37781;SDS011;23621;50.878;4.584;2023-04-30T12:12:10;7.65;;;5.88;;
37781;SDS011;23621;50.878;4.584;2023-04-30T12:14:57;6.53;;;5.93;;
37781;SDS011;23621;50.878;4.584;2023-04-30T12:17:45;5.75;;;5.20;;
37781;SDS011;23621;50.878;4.584;2023-04-30T12:20:32;6.28;;;5.55;;
37781;SDS011;23621;50.878;4.584;2023-04-30T12:23:19;6.30;;;5.18;;
37781;SDS011;23621;50.878;4.584;2023-04-30T12:26:07;6.40;;;4.50;;
37781;SDS011;23621;50.878;4.584;2023-04-30T12:28:54;5.55;;;4.45;;
37781;SDS011;23621;50.878;4.584;2023-04-30T12:31:41;5.55;;;4.80;;
37781;SDS011;23621;50.878;4.584;2023-04-30T12:34:29;6.22;;;4.25;;
37781;SDS011;23621;50.878;4.584;2023-04-30T12:37:19;3.63;;;3.33;;
37781;SDS011;23621;50.878;4.584;2023-04-30T12:40:06;4.20;;;3.45;;
37781;SDS011;23621;50.878;4.584;2023-04-30T12:43:00;4.43;;;3.35;;
37781;SDS011;23621;50.878;4.584;2023-04-30T12:45:53;3.40;;;3.00;;
37781;SDS011;23621;50.878;4.584;2023-04-30T12:48:44;4.25;;;3.22;;
37781;SDS011;23621;50.878;4.584;2023-04-30T12:51:33;4.05;;;3.15;;
37781;SDS011;23621;50.878;4.584;2023-04-30T12:54:25;3.28;;;2.97;;
37781;SDS011;23621;50.878;4.584;2023-04-30T12:57:25;3.35;;;2.78;;
37781;SDS011;23621;50.878;4.584;2023-04-30T13:00:12;3.85;;;3.13;;
37781;SDS011;23621;50.878;4.584;2023-04-30T13:03:00;5.03;;;3.42;;
37781;SDS011;23621;50.878;4.584;2023-04-30T13:05:51;3.20;;;3.00;;
37781;SDS011;23621;50.878;4.584;2023-04-30T13:08:39;3.20;;;2.90;;
37781;SDS011;23621;50.878;4.584;2023-04-30T13:11:43;4.47;;;3.05;;
37781;SDS011;23621;50.878;4.584;2023-04-30T13:14:30;2.75;;;2.55;;
37781;SDS011;23621;50.878;4.584;2023-04-30T13:17:18;3.50;;;2.88;;
37781;SDS011;23621;50.878;4.584;2023-04-30T13:20:05;2.70;;;2.50;;
37781;SDS011;23621;50.878;4.584;2023-04-30T13:22:53;3.13;;;2.83;;
37781;SDS011;23621;50.878;4.584;2023-04-30T13:25:40;3.80;;;2.97;;
37781;SDS011;23621;50.878;4.584;2023-04-30T13:28:27;3.97;;;3.10;;
37781;SDS011;23621;50.878;4.584;2023-04-30T13:31:14;3.35;;;3.05;;
37781;SDS011;23621;50.878;4.584;2023-04-30T13:34:02;3.60;;;3.30;;
37781;SDS011;23621;50.878;4.584;2023-04-30T13:36:49;3.35;;;2.83;;
37781;SDS011;23621;50.878;4.584;2023-04-30T13:39:39;3.13;;;2.80;;
37781;SDS011;23621;50.878;4.584;2023-04-30T13:42:26;3.05;;;2.75;;
37781;SDS011;23621;50.878;4.584;2023-04-30T13:45:13;3.85;;;3.33;;
37781;SDS011;23621;50.878;4.584;2023-04-30T13:48:01;4.15;;;3.20;;
37781;SDS011;23621;50.878;4.584;2023-04-30T13:50:50;3.33;;;3.03;;
37781;SDS011;23621;50.878;4.584;2023-04-30T13:53:37;4.90;;;3.67;;
37781;SDS011;23621;50.878;4.584;2023-04-30T13:56:25;3.10;;;2.80;;
37781;SDS011;23621;50.878;4.584;2023-04-30T13:59:14;3.35;;;3.03;;
37781;SDS011;23621;50.878;4.584;2023-04-30T14:02:01;3.92;;;3.53;;
37781;SDS011;23621;50.878;4.584;2023-04-30T14:04:48;4.05;;;3.30;;
37781;SDS011;23621;50.878;4.584;2023-04-30T14:07:51;3.67;;;3.35;;
37781;SDS011;23621;50.878;4.584;2023-04-30T14:10:38;3.47;;;3.17;;
37781;SDS011;23621;50.878;4.584;2023-04-30T14:13:25;3.60;;;3.30;;
37781;SDS011;23621;50.878;4.584;2023-04-30T14:16:12;3.50;;;3.20;;
37781;SDS011;23621;50.878;4.584;2023-04-30T14:18:59;3.58;;;3.28;;
37781;SDS011;23621;50.878;4.584;2023-04-30T14:21:46;3.80;;;3.40;;
37781;SDS011;23621;50.878;4.584;2023-04-30T14:24:34;3.20;;;2.90;;
37781;SDS011;23621;50.878;4.584;2023-04-30T14:27:21;3.03;;;2.80;;
37781;SDS011;23621;50.878;4.584;2023-04-30T14:30:09;2.97;;;2.50;;
37781;SDS011;23621;50.878;4.584;2023-04-30T14:32:56;2.30;;;2.10;;
37781;SDS011;23621;50.878;4.584;2023-04-30T14:35:43;3.05;;;2.75;;
37781;SDS011;23621;50.878;4.584;2023-04-30T14:38:31;2.95;;;2.75;;
37781;SDS011;23621;50.878;4.584;2023-04-30T14:41:19;2.80;;;2.60;;
37781;SDS011;23621;50.878;4.584;2023-04-30T14:44:06;3.10;;;2.80;;
37781;SDS011;23621;50.878;4.584;2023-04-30T14:46:53;3.10;;;2.78;;
37781;SDS011;23621;50.878;4.584;2023-04-30T14:49:41;2.78;;;2.55;;
37781;SDS011;23621;50.878;4.584;2023-04-30T14:52:28;2.70;;;2.50;;
37781;SDS011;23621;50.878;4.584;2023-04-30T14:55:15;4.00;;;3.28;;
37781;SDS011;23621;50.878;4.584;2023-04-30T14:58:03;2.67;;;2.47;;
37781;SDS011;23621;50.878;4.584;2023-04-30T15:00:50;3.17;;;2.97;;
37781;SDS011;23621;50.878;4.584;2023-04-30T15:03:38;3.95;;;2.60;;
37781;SDS011;23621;50.878;4.584;2023-04-30T15:06:25;2.63;;;2.42;;
37781;SDS011;23621;50.878;4.584;2023-04-30T15:09:13;3.65;;;2.50;;
37781;SDS011;23621;50.878;4.584;2023-04-30T15:12:00;2.50;;;2.30;;
37781;SDS011;23621;50.878;4.584;2023-04-30T15:14:47;2.70;;;2.50;;
37781;SDS011;23621;50.878;4.584;2023-04-30T15:17:34;2.90;;;2.33;;
37781;SDS011;23621;50.878;4.584;2023-04-30T15:20:24;2.53;;;2.30;;
37781;SDS011;23621;50.878;4.584;2023-04-30T15:23:11;2.00;;;1.90;;
37781;SDS011;23621;50.878;4.584;2023-04-30T15:25:59;2.22;;;2.10;;
37781;SDS011;23621;50.878;4.584;2023-04-30T15:28:47;2.10;;;1.90;;
37781;SDS011;23621;50.878;4.584;2023-04-30T15:31:34;3.72;;;1.90;;
37781;SDS011;23621;50.878;4.584;2023-04-30T15:34:21;1.95;;;1.75;;
37781;SDS011;23621;50.878;4.584;2023-04-30T15:37:09;2.53;;;2.33;;
37781;SDS011;23621;50.878;4.584;2023-04-30T15:39:56;1.85;;;1.75;;
37781;SDS011;23621;50.878;4.584;2023-04-30T15:42:43;2.40;;;2.20;;
37781;SDS011;23621;50.878;4.584;2023-04-30T15:45:31;2.05;;;1.90;;
37781;SDS011;23621;50.878;4.584;2023-04-30T15:48:19;2.53;;;2.10;;
37781;SDS011;23621;50.878;4.584;2023-04-30T15:51:06;1.63;;;1.52;;
37781;SDS011;23621;50.878;4.584;2023-04-30T15:53:53;2.03;;;1.83;;
37781;SDS011;23621;50.878;4.584;2023-04-30T15:56:41;1.85;;;1.75;;
37781;SDS011;23621;50.878;4.584;2023-04-30T15:59:28;1.65;;;1.52;;
37781;SDS011;23621;50.878;4.584;2023-04-30T16:02:15;1.75;;;1.65;;
37781;SDS011;23621;50.878;4.584;2023-04-30T16:05:03;2.63;;;2.13;;
37781;SDS011;23621;50.878;4.584;2023-04-30T16:07:50;2.35;;;1.95;;
37781;SDS011;23621;50.878;4.584;2023-04-30T16:10:39;2.92;;;2.72;;
37781;SDS011;23621;50.878;4.584;2023-04-30T16:13:26;1.83;;;1.73;;
37781;SDS011;23621;50.878;4.584;2023-04-30T16:16:13;4.32;;;1.90;;
37781;SDS011;23621;50.878;4.584;2023-04-30T16:19:02;2.22;;;1.65;;
37781;SDS011;23621;50.878;4.584;2023-04-30T16:21:49;1.30;;;1.20;;
37781;SDS011;23621;50.878;4.584;2023-04-30T16:24:36;1.50;;;1.40;;
37781;SDS011;23621;50.878;4.584;2023-04-30T16:27:23;2.50;;;1.73;;
37781;SDS011;23621;50.878;4.584;2023-04-30T16:30:11;2.60;;;2.40;;
37781;SDS011;23621;50.878;4.584;2023-04-30T16:32:58;2.60;;;2.40;;
37781;SDS011;23621;50.878;4.584;2023-04-30T16:35:46;4.35;;;3.78;;
37781;SDS011;23621;50.878;4.584;2023-04-30T16:38:33;3.17;;;2.63;;
37781;SDS011;23621;50.878;4.584;2023-04-30T16:41:21;6.53;;;6.03;;
37781;SDS011;23621;50.878;4.584;2023-04-30T16:44:09;4.40;;;4.03;;
37781;SDS011;23621;50.878;4.584;2023-04-30T16:46:56;2.10;;;1.80;;
37781;SDS011;23621;50.878;4.584;2023-04-30T16:49:45;1.80;;;1.70;;
37781;SDS011;23621;50.878;4.584;2023-04-30T16:52:32;1.50;;;1.40;;
37781;SDS011;23621;50.878;4.584;2023-04-30T16:55:20;1.85;;;1.50;;
37781;SDS011;23621;50.878;4.584;2023-04-30T16:58:07;1.95;;;1.75;;
37781;SDS011;23621;50.878;4.584;2023-04-30T17:00:54;1.52;;;1.38;;
37781;SDS011;23621;50.878;4.584;2023-04-30T17:03:42;1.60;;;1.50;;
37781;SDS011;23621;50.878;4.584;2023-04-30T17:06:29;1.95;;;1.70;;
37781;SDS011;23621;50.878;4.584;2023-04-30T17:09:16;2.35;;;1.70;;
37781;SDS011;23621;50.878;4.584;2023-04-30T17:12:05;1.83;;;1.67;;